Time;durP1;ratioP1;P1;durP2;ratioP2;P2;SDS_P1;SDS_P2;PMS_P1;PMS_P2;Temp;Humidity;BMP_temperature;BMP_pressure;BME280_temperature;BME280_humidity;BME280_pressure;Samples;Min_cycle;Max_cycle;Signal;HPM_P1;HPM_P2
2022/10/04 00:00:26;;;;;;;13.52;7.55;;;;;;;;;;5051106;28;20041;-68
2022/10/04 00:03:02;;;;;;;14.43;7.15;;;;;;;;;;5052622;28;20159;-68
2022/10/04 00:05:29;;;;;;;9.73;7.20;;;;;;;;;;5051776;28;20044;-68
2022/10/04 00:07:58;;;;;;;9.40;6.50;;;;;;;;;;5051659;28;20098;-68
2022/10/04 00:10:32;;;;;;;13.50;7.25;;;;;;;;;;5049120;28;20071;-68
2022/10/04 00:12:59;;;;;;;11.50;7.32;;;;;;;;;;5045230;28;20056;-68
2022/10/04 00:15:27;;;;;;;9.93;7.45;;;;;;;;;;5049718;28;20510;-68
2022/10/04 00:18:19;;;;;;;14.23;6.93;;;;;;;;;;5052706;28;20036;-68
2022/10/04 00:20:52;;;;;;;14.30;7.30;;;;;;;;;;5028821;28;20413;-68
2022/10/04 00:23:24;;;;;;;10.07;6.65;;;;;;;;;;5049825;28;20064;-68
2022/10/04 00:25:54;;;;;;;13.25;7.50;;;;;;;;;;5045338;28;20052;-68
2022/10/04 00:28:20;;;;;;;13.20;7.68;;;;;;;;;;5045858;28;20167;-68
2022/10/04 00:31:05;;;;;;;18.13;8.40;;;;;;;;;;5051265;28;20127;-68
2022/10/04 00:33:39;;;;;;;12.82;7.65;;;;;;;;;;5049003;28;20107;-68
2022/10/04 00:36:25;;;;;;;15.18;7.50;;;;;;;;;;5051338;28;20033;-68
2022/10/04 00:39:03;;;;;;;14.93;7.78;;;;;;;;;;5030319;28;20052;-68
2022/10/04 00:41:48;;;;;;;16.27;7.57;;;;;;;;;;5048246;28;20076;-68
2022/10/04 00:44:27;;;;;;;15.63;7.82;;;;;;;;;;5049696;28;20449;-68
2022/10/04 00:46:54;;;;;;;13.52;7.18;;;;;;;;;;5051873;28;20437;-68
2022/10/04 00:49:22;;;;;;;13.02;7.55;;;;;;;;;;5048924;28;20483;-68
2022/10/04 00:51:55;;;;;;;13.85;6.75;;;;;;;;;;5051054;28;20490;-68
2022/10/04 00:54:24;;;;;;;15.70;8.05;;;;;;;;;;5049717;28;20079;-68
2022/10/04 00:56:51;;;;;;;11.05;6.95;;;;;;;;;;5045954;28;20040;-68
2022/10/04 00:59:20;;;;;;;12.48;7.15;;;;;;;;;;5050991;28;20111;-68
2022/10/04 01:01:49;;;;;;;10.90;6.93;;;;;;;;;;5049860;28;20194;-68
2022/10/04 01:04:27;;;;;;;11.77;7.60;;;;;;;;;;5048164;28;20049;-68
2022/10/04 01:06:54;;;;;;;14.45;8.02;;;;;;;;;;5050742;28;20060;-68
2022/10/04 01:09:21;;;;;;;11.25;7.72;;;;;;;;;;5049082;28;20609;-68
2022/10/04 01:11:52;;;;;;;12.98;7.50;;;;;;;;;;5045572;28;20128;-68
2022/10/04 01:14:24;;;;;;;16.67;8.88;;;;;;;;;;5049468;28;20447;-68
2022/10/04 01:16:51;;;;;;;16.95;8.60;;;;;;;;;;5048948;28;20048;-68
2022/10/04 01:19:25;;;;;;;15.38;8.35;;;;;;;;;;5049764;28;20190;-68
2022/10/04 01:22:01;;;;;;;11.88;8.20;;;;;;;;;;5050859;28;20175;-68
2022/10/04 01:24:33;;;;;;;13.77;8.25;;;;;;;;;;5046138;28;20105;-68
2022/10/04 01:26:59;;;;;;;12.68;8.60;;;;;;;;;;5050591;28;20052;-68
2022/10/04 01:29:26;;;;;;;17.10;8.60;;;;;;;;;;5044705;28;20045;-68
2022/10/04 01:31:53;;;;;;;16.15;8.35;;;;;;;;;;5048926;28;20489;-68
2022/10/04 01:34:21;;;;;;;15.38;8.75;;;;;;;;;;5050127;28;20037;-68
2022/10/04 01:36:47;;;;;;;19.08;9.55;;;;;;;;;;5051646;28;20144;-68
2022/10/04 01:39:14;;;;;;;12.10;8.30;;;;;;;;;;5048635;28;20033;-68
2022/10/04 01:41:52;;;;;;;15.73;8.98;;;;;;;;;;5048865;28;20566;-68
2022/10/04 01:44:24;;;;;;;14.23;8.32;;;;;;;;;;5050383;28;20445;-68
2022/10/04 01:46:52;;;;;;;12.77;8.80;;;;;;;;;;5050725;28;20442;-68
2022/10/04 01:49:20;;;;;;;12.70;8.32;;;;;;;;;;5048320;28;20518;-68
2022/10/04 01:52:07;;;;;;;13.55;9.02;;;;;;;;;;5047879;28;20040;-68
2022/10/04 01:54:38;;;;;;;16.67;9.13;;;;;;;;;;5044725;28;20044;-68
2022/10/04 01:57:10;;;;;;;12.27;9.07;;;;;;;;;;5050193;28;20491;-68
2022/10/04 01:59:43;;;;;;;17.25;9.48;;;;;;;;;;5048619;28;20060;-68
2022/10/04 02:02:16;;;;;;;14.95;9.07;;;;;;;;;;5043967;28;20041;-68
2022/10/04 02:04:43;;;;;;;16.70;9.52;;;;;;;;;;5047830;28;20765;-68
2022/10/04 02:07:13;;;;;;;13.68;9.35;;;;;;;;;;5048103;28;20143;-68
2022/10/04 02:09:42;;;;;;;16.27;9.65;;;;;;;;;;5050519;28;20037;-68
2022/10/04 02:12:08;;;;;;;18.70;10.38;;;;;;;;;;5049424;28;20120;-68
2022/10/04 02:14:35;;;;;;;18.23;10.48;;;;;;;;;;5049108;28;20041;-68
2022/10/04 02:17:02;;;;;;;15.93;9.45;;;;;;;;;;5050051;28;20072;-68
2022/10/04 02:19:33;;;;;;;14.80;9.50;;;;;;;;;;5049922;28;20037;-68
2022/10/04 02:21:59;;;;;;;;;;;;;;;;;;5051210;28;20538;-68
2022/10/04 02:24:26;;;;;;;17.48;9.35;;;;;;;;;;5049156;28;20381;-71
2022/10/04 02:26:52;;;;;;;18.70;9.48;;;;;;;;;;5061187;22;20094;-66
2022/10/04 02:29:19;;;;;;;16.42;9.27;;;;;;;;;;5049324;28;20037;-65
2022/10/04 02:34:30;;;;;;;21.08;9.95;;;;;;;;;;5048009;28;20072;-65
2022/10/04 02:36:57;;;;;;;13.98;8.85;;;;;;;;;;5048261;28;20052;-65
2022/10/04 02:39:26;;;;;;;11.95;9.15;;;;;;;;;;5030496;28;20103;-65
2022/10/04 02:41:56;;;;;;;13.80;9.02;;;;;;;;;;5043439;28;20090;-65
2022/10/04 02:44:41;;;;;;;14.50;9.47;;;;;;;;;;5050884;28;20498;-66
2022/10/04 02:47:07;;;;;;;14.77;8.65;;;;;;;;;;5049053;28;20044;-66
2022/10/04 02:49:38;;;;;;;15.95;9.02;;;;;;;;;;5047531;28;21351;-65
2022/10/04 02:52:20;;;;;;;16.05;9.45;;;;;;;;;;5049727;28;20407;-66
2022/10/04 02:54:54;;;;;;;12.65;9.38;;;;;;;;;;5027235;28;20057;-66
2022/10/04 02:57:21;;;;;;;17.25;9.50;;;;;;;;;;5046581;28;20033;-66
2022/10/04 02:59:48;;;;;;;16.35;9.65;;;;;;;;;;5032025;28;20037;-66
2022/10/04 03:02:21;;;;;;;13.65;9.60;;;;;;;;;;5046038;28;20032;-66
2022/10/04 03:04:48;;;;;;;14.90;9.32;;;;;;;;;;5049381;28;20091;-65
2022/10/04 03:07:15;;;;;;;14.35;9.10;;;;;;;;;;5032390;28;20048;-66
2022/10/04 03:09:41;;;;;;;18.67;9.30;;;;;;;;;;5031099;28;20568;-66
2022/10/04 03:12:10;;;;;;;16.67;9.55;;;;;;;;;;5048730;28;20037;-66
2022/10/04 03:14:37;;;;;;;12.80;9.23;;;;;;;;;;5053380;28;20637;-65
2022/10/04 03:17:04;;;;;;;14.43;9.10;;;;;;;;;;5053328;28;20048;-66
2022/10/04 03:19:30;;;;;;;17.23;9.82;;;;;;;;;;5052368;28;20060;-66
2022/10/04 03:21:59;;;;;;;14.25;9.32;;;;;;;;;;5054052;28;20041;-66
2022/10/04 03:24:28;;;;;;;13.43;9.55;;;;;;;;;;5052605;28;20041;-65
2022/10/04 03:26:55;;;;;;;15.38;9.05;;;;;;;;;;5048766;28;20044;-66
2022/10/04 03:29:23;;;;;;;15.68;9.43;;;;;;;;;;5052540;28;20033;-66
2022/10/04 03:31:51;;;;;;;9.98;8.25;;;;;;;;;;5052815;28;20107;-66
2022/10/04 03:34:22;;;;;;;12.43;8.35;;;;;;;;;;5052868;28;20033;-66
2022/10/04 03:36:48;;;;;;;;;;;;;;;;;;5053763;28;20078;-66
2022/10/04 03:39:34;;;;;;;16.17;9.32;;;;;;;;;;5053199;28;20374;-66
2022/10/04 03:42:20;;;;;;;11.48;9.20;;;;;;;;;;5050214;28;20106;-66
2022/10/04 03:44:47;;;;;;;16.55;9.30;;;;;;;;;;5051520;28;20110;-66
2022/10/04 03:47:16;;;;;;;15.45;8.90;;;;;;;;;;5052479;28;20560;-66
2022/10/04 03:49:43;;;;;;;12.15;8.82;;;;;;;;;;5051998;28;20052;-66
2022/10/04 03:52:16;;;;;;;16.05;9.40;;;;;;;;;;5052243;28;20708;-66
2022/10/04 03:54:43;;;;;;;14.75;8.35;;;;;;;;;;5052123;28;20045;-66
2022/10/04 03:57:09;;;;;;;16.13;8.73;;;;;;;;;;5052299;28;20094;-66
2022/10/04 03:59:36;;;;;;;14.70;8.68;;;;;;;;;;5045508;28;20110;-66
2022/10/04 04:02:11;;;;;;;11.82;8.38;;;;;;;;;;5036451;28;20523;-66
2022/10/04 04:04:42;;;;;;;13.85;8.52;;;;;;;;;;5045199;28;20499;-66
2022/10/04 04:07:13;;;;;;;14.13;8.27;;;;;;;;;;5055500;28;20075;-66
2022/10/04 04:09:44;;;;;;;13.40;8.70;;;;;;;;;;5051429;28;20076;-64
2022/10/04 04:12:16;;;;;;;13.88;9.25;;;;;;;;;;5051596;28;20048;-64
2022/10/04 04:14:42;;;;;;;12.30;8.70;;;;;;;;;;5052442;28;20033;-64
2022/10/04 04:17:27;;;;;;;12.10;8.45;;;;;;;;;;5052327;28;20051;-63
2022/10/04 04:19:54;;;;;;;15.65;8.65;;;;;;;;;;5054250;28;20045;-64
2022/10/04 04:22:20;;;;;;;15.48;9.43;;;;;;;;;;5049147;28;20128;-64
2022/10/04 04:24:46;;;;;;;11.55;7.93;;;;;;;;;;5049031;28;20037;-64
2022/10/04 04:27:15;;;;;;;17.20;8.50;;;;;;;;;;5030812;28;20131;-64
2022/10/04 04:29:54;;;;;;;16.02;9.43;;;;;;;;;;5051376;28;20050;-65
2022/10/04 04:32:23;;;;;;;16.80;9.02;;;;;;;;;;5052173;28;20037;-65
2022/10/04 04:34:59;;;;;;;14.80;9.18;;;;;;;;;;5048272;28;20037;-65
2022/10/04 04:37:25;;;;;;;10.82;8.52;;;;;;;;;;5051248;28;20098;-65
2022/10/04 04:39:56;;;;;;;10.73;8.23;;;;;;;;;;5066939;28;20052;-66
2022/10/04 04:42:28;;;;;;;14.43;9.90;;;;;;;;;;5056047;28;20044;-66
2022/10/04 04:44:56;;;;;;;13.35;9.43;;;;;;;;;;5048537;28;20502;-66
2022/10/04 04:47:27;;;;;;;11.27;8.45;;;;;;;;;;5051940;28;20394;-67
2022/10/04 04:49:55;;;;;;;12.85;7.90;;;;;;;;;;5033962;28;20102;-64
2022/10/04 04:52:24;;;;;;;11.60;8.18;;;;;;;;;;5050976;28;20547;-65
2022/10/04 04:54:51;;;;;;;15.30;10.20;;;;;;;;;;5048660;28;20541;-65
2022/10/04 04:57:17;;;;;;;19.27;10.55;;;;;;;;;;5042840;28;20123;-65
2022/10/04 04:59:45;;;;;;;13.60;10.18;;;;;;;;;;5059680;28;20040;-65
2022/10/04 05:02:26;;;;;;;16.25;10.00;;;;;;;;;;5053634;28;20040;-65
2022/10/04 05:04:52;;;;;;;;;;;;;;;;;;5048447;28;20079;-65
2022/10/04 05:07:18;;;;;;;13.70;8.60;;;;;;;;;;5051528;28;19963;-65
2022/10/04 05:09:44;;;;;;;12.40;8.45;;;;;;;;;;5043718;28;20048;-65
2022/10/04 05:12:18;;;;;;;13.45;9.35;;;;;;;;;;5051818;28;20048;-65
2022/10/04 05:14:51;;;;;;;17.40;11.80;;;;;;;;;;5033052;28;20108;-65
2022/10/04 05:17:29;;;;;;;17.20;10.27;;;;;;;;;;5051288;28;20057;-65
2022/10/04 05:20:00;;;;;;;20.40;13.02;;;;;;;;;;5051942;28;20037;-65
2022/10/04 05:22:26;;;;;;;18.52;12.35;;;;;;;;;;5047857;28;20037;-65
2022/10/04 05:24:55;;;;;;;20.23;12.27;;;;;;;;;;5047433;28;20045;-65
2022/10/04 05:27:32;;;;;;;16.30;11.63;;;;;;;;;;5050329;28;20503;-65
2022/10/04 05:30:04;;;;;;;18.10;12.25;;;;;;;;;;5051518;28;20060;-65
2022/10/04 05:32:49;;;;;;;17.40;11.98;;;;;;;;;;5048885;28;20048;-65
2022/10/04 05:35:19;;;;;;;17.02;11.95;;;;;;;;;;5046489;28;20044;-65
2022/10/04 05:37:52;;;;;;;18.00;11.77;;;;;;;;;;5050977;28;20037;-65
2022/10/04 05:40:21;;;;;;;20.90;11.95;;;;;;;;;;5061742;28;20056;-65
2022/10/04 05:42:48;;;;;;;17.45;11.55;;;;;;;;;;5048631;28;20069;-65
2022/10/04 05:45:41;;;;;;;15.50;12.00;;;;;;;;;;5036629;28;20395;-65
2022/10/04 05:48:07;;;;;;;14.38;9.98;;;;;;;;;;5042495;28;20036;-66
2022/10/04 05:50:34;;;;;;;16.98;10.40;;;;;;;;;;5045619;28;20446;-67
2022/10/04 05:53:19;;;;;;;17.63;12.15;;;;;;;;;;5025896;28;20060;-66
2022/10/04 05:56:11;;;;;;;16.42;10.88;;;;;;;;;;5045193;28;20032;-66
2022/10/04 05:58:43;;;;;;;20.20;12.55;;;;;;;;;;5009457;28;20090;-66
2022/10/04 06:01:23;;;;;;;19.70;12.75;;;;;;;;;;5033600;28;20056;-66
2022/10/04 06:04:08;;;;;;;18.80;11.75;;;;;;;;;;5051755;28;20084;-66
2022/10/04 06:07:01;;;;;;;18.40;12.60;;;;;;;;;;5049256;28;20084;-66
2022/10/04 06:09:50;;;;;;;18.98;12.00;;;;;;;;;;5042432;28;20415;-66
2022/10/04 06:12:41;;;;;;;17.00;13.13;;;;;;;;;;5049671;28;20080;-66
2022/10/04 06:15:26;;;;;;;23.60;14.43;;;;;;;;;;5048502;28;20139;-66
2022/10/04 06:17:55;;;;;;;26.73;14.38;;;;;;;;;;5050881;28;20155;-66
2022/10/04 06:20:24;;;;;;;19.10;13.75;;;;;;;;;;5049237;28;20441;-66
2022/10/04 06:22:55;;;;;;;28.48;16.35;;;;;;;;;;5051127;28;20572;-66
2022/10/04 06:25:29;;;;;;;21.58;15.07;;;;;;;;;;5049281;28;20525;-66
2022/10/04 06:28:14;;;;;;;23.98;14.38;;;;;;;;;;5050224;28;20087;-67
2022/10/04 06:30:51;;;;;;;25.52;14.52;;;;;;;;;;5046538;28;20037;-65
2022/10/04 06:33:19;;;;;;;16.83;12.48;;;;;;;;;;5043479;28;20041;-66
2022/10/04 06:36:05;;;;;;;19.02;13.00;;;;;;;;;;5037816;28;20038;-66
2022/10/04 06:38:36;;;;;;;18.88;12.38;;;;;;;;;;5021240;28;20116;-66
2022/10/04 06:41:08;;;;;;;21.02;12.45;;;;;;;;;;5018706;28;20086;-66
2022/10/04 06:43:34;;;;;;;19.55;13.15;;;;;;;;;;5024357;28;20395;-66
2022/10/04 06:46:00;;;;;;;17.05;13.10;;;;;;;;;;5042616;28;20123;-66
2022/10/04 06:48:35;;;;;;;20.77;12.75;;;;;;;;;;5027790;28;20823;-66
2022/10/04 06:51:10;;;;;;;18.23;11.98;;;;;;;;;;5049958;28;20045;-66
2022/10/04 06:53:45;;;;;;;17.13;12.63;;;;;;;;;;5036468;28;20045;-67
2022/10/04 06:56:20;;;;;;;20.88;13.88;;;;;;;;;;5051526;28;20087;-67
2022/10/04 06:58:57;;;;;;;22.95;13.85;;;;;;;;;;5047593;28;20090;-66
2022/10/04 07:01:30;;;;;;;23.42;13.77;;;;;;;;;;5034559;28;20055;-66
2022/10/04 07:04:01;;;;;;;24.48;15.70;;;;;;;;;;5051753;28;20406;-66
2022/10/04 07:06:29;;;;;;;19.83;14.90;;;;;;;;;;5044871;28;20051;-66
2022/10/04 07:08:58;;;;;;;26.05;14.32;;;;;;;;;;5050447;28;20037;-66
2022/10/04 07:11:31;;;;;;;27.17;15.23;;;;;;;;;;5048741;28;20041;-66
2022/10/04 07:13:57;;;;;;;25.23;16.08;;;;;;;;;;5053488;28;20048;-66
2022/10/04 07:16:38;;;;;;;25.52;15.90;;;;;;;;;;5061548;28;20106;-66
2022/10/04 07:19:04;;;;;;;;;;;;;;;;;;5052366;28;20041;-66
2022/10/04 07:21:53;;;;;;;26.73;17.75;;;;;;;;;;5051779;28;19920;-66
2022/10/04 07:24:27;;;;;;;29.90;17.48;;;;;;;;;;5057517;28;20041;-66
2022/10/04 07:26:54;;;;;;;26.50;17.02;;;;;;;;;;5058109;28;20247;-66
2022/10/04 07:29:34;;;;;;;27.55;17.02;;;;;;;;;;5052534;28;20040;-66
2022/10/04 07:32:12;;;;;;;29.33;17.52;;;;;;;;;;5053361;28;20041;-66
2022/10/04 07:34:52;;;;;;;25.58;17.33;;;;;;;;;;5060751;28;20041;-66
2022/10/04 07:37:18;;;;;;;29.27;17.55;;;;;;;;;;5054237;28;20461;-66
2022/10/04 07:40:00;;;;;;;24.23;15.73;;;;;;;;;;5051841;28;20656;-66
2022/10/04 07:42:29;;;;;;;21.75;14.35;;;;;;;;;;5052862;28;20037;-66
2022/10/04 07:45:14;;;;;;;28.50;15.68;;;;;;;;;;5061781;28;20109;-66
2022/10/04 07:47:41;;;;;;;25.38;15.05;;;;;;;;;;5041861;28;20136;-66
2022/10/04 07:50:21;;;;;;;24.25;14.75;;;;;;;;;;5047720;28;20458;-66
2022/10/04 07:52:51;;;;;;;24.90;14.95;;;;;;;;;;5047782;28;20064;-64
2022/10/04 07:55:36;;;;;;;23.58;14.30;;;;;;;;;;5049646;28;20069;-63
2022/10/04 07:58:11;;;;;;;25.75;15.15;;;;;;;;;;5048903;28;20044;-64
2022/10/04 08:00:43;;;;;;;23.77;15.05;;;;;;;;;;5045507;28;20513;-64
2022/10/04 08:03:09;;;;;;;20.65;14.00;;;;;;;;;;5048291;28;20048;-63
2022/10/04 08:05:37;;;;;;;20.48;13.95;;;;;;;;;;5051376;28;20411;-64
2022/10/04 08:08:22;;;;;;;22.42;13.95;;;;;;;;;;5051661;28;20041;-63
2022/10/04 08:11:06;;;;;;;24.15;12.98;;;;;;;;;;5042637;28;20135;-65
2022/10/04 08:13:47;;;;;;;21.63;13.10;;;;;;;;;;5045113;28;20044;-65
2022/10/04 08:16:31;;;;;;;22.60;12.73;;;;;;;;;;5049809;28;20115;-65
2022/10/04 08:19:05;;;;;;;19.65;12.77;;;;;;;;;;5059939;28;20488;-65
2022/10/04 08:21:35;;;;;;;18.35;12.27;;;;;;;;;;5050728;28;20056;-65
2022/10/04 08:24:04;;;;;;;21.92;13.27;;;;;;;;;;5046543;28;20449;-66
2022/10/04 08:26:45;;;;;;;18.25;11.55;;;;;;;;;;5053921;22;20136;-69
2022/10/04 08:29:41;;;;;;;19.15;11.55;;;;;;;;;;5044585;28;20044;-69
2022/10/04 08:32:26;;;;;;;14.88;10.65;;;;;;;;;;5044403;28;20068;-69
2022/10/04 08:35:02;;;;;;;15.45;11.02;;;;;;;;;;5043926;28;20501;-68
2022/10/04 08:37:34;;;;;;;21.63;10.75;;;;;;;;;;5044344;28;20558;-69
2022/10/04 08:40:03;;;;;;;16.38;10.18;;;;;;;;;;5044088;28;20041;-69
2022/10/04 08:42:40;;;;;;;17.67;9.98;;;;;;;;;;5052702;28;20051;-68
2022/10/04 08:45:25;;;;;;;15.80;9.77;;;;;;;;;;5044443;28;20605;-69
2022/10/04 08:47:57;;;;;;;17.23;10.80;;;;;;;;;;5028493;28;20048;-68
2022/10/04 08:50:23;;;;;;;13.77;10.23;;;;;;;;;;5049927;28;20044;-69
2022/10/04 08:52:57;;;;;;;13.70;9.50;;;;;;;;;;5045075;28;20038;-68
2022/10/04 08:55:39;;;;;;;18.92;10.10;;;;;;;;;;5042715;28;20041;-68
2022/10/04 08:58:24;;;;;;;15.77;9.82;;;;;;;;;;5049286;28;20566;-69
2022/10/04 09:00:55;;;;;;;16.65;9.52;;;;;;;;;;5044567;28;20128;-69
2022/10/04 09:03:40;;;;;;;13.55;9.55;;;;;;;;;;5048406;28;20120;-68
2022/10/04 09:06:12;;;;;;;16.02;9.45;;;;;;;;;;5046574;28;20499;-68
2022/10/04 09:08:57;;;;;;;13.23;8.73;;;;;;;;;;5044138;28;20494;-68
2022/10/04 09:11:30;;;;;;;11.90;9.00;;;;;;;;;;5045053;28;20041;-68
2022/10/04 09:13:58;;;;;;;15.45;9.27;;;;;;;;;;5050280;28;20052;-68
2022/10/04 09:16:24;;;;;;;14.65;9.40;;;;;;;;;;5050449;28;20040;-69
2022/10/04 09:19:06;;;;;;;15.50;9.40;;;;;;;;;;5050286;28;20044;-68
2022/10/04 09:22:10;;;;;;;12.15;9.38;;;;;;;;;;5031713;28;20052;-68
2022/10/04 09:24:39;;;;;;;13.45;9.68;;;;;;;;;;5004957;28;20045;-68
2022/10/04 09:27:11;;;;;;;15.52;9.13;;;;;;;;;;5019229;28;20037;-68
2022/10/04 09:29:46;;;;;;;13.93;9.32;;;;;;;;;;5026950;28;20052;-68
2022/10/04 09:32:31;;;;;;;13.52;9.32;;;;;;;;;;5048154;28;20048;-68
2022/10/04 09:34:57;;;;;;;14.15;9.32;;;;;;;;;;5046669;28;20037;-68
2022/10/04 09:37:52;;;;;;;18.58;10.63;;;;;;;;;;5050211;28;20037;-68
2022/10/04 09:40:21;;;;;;;14.93;9.18;;;;;;;;;;5021868;28;20050;-68
2022/10/04 09:43:06;;;;;;;13.60;10.18;;;;;;;;;;5047921;28;20036;-69
2022/10/04 09:45:51;;;;;;;17.35;9.75;;;;;;;;;;5051234;28;20048;-69
2022/10/04 09:48:35;;;;;;;15.25;9.30;;;;;;;;;;5048946;28;20029;-68
2022/10/04 09:51:08;;;;;;;14.48;9.05;;;;;;;;;;5051243;28;20044;-69
2022/10/04 09:53:53;;;;;;;13.85;9.25;;;;;;;;;;5043283;28;20403;-68
2022/10/04 09:56:18;;;;;;;14.15;9.45;;;;;;;;;;5038914;28;20132;-68
2022/10/04 09:58:58;;;;;;;18.15;10.15;;;;;;;;;;5032475;28;20049;-69
2022/10/04 10:01:28;;;;;;;14.73;9.13;;;;;;;;;;5041704;28;20037;-68
2022/10/04 10:03:54;;;;;;;12.80;8.57;;;;;;;;;;5043098;28;20410;-69
2022/10/04 10:06:40;;;;;;;13.38;8.40;;;;;;;;;;5045021;28;20115;-68
2022/10/04 10:09:11;;;;;;;14.63;8.50;;;;;;;;;;5038731;28;20037;-69
2022/10/04 10:14:37;;;;;;;14.68;7.90;;;;;;;;;;5043885;28;20476;-69
2022/10/04 10:17:03;;;;;;;10.50;7.45;;;;;;;;;;5046810;28;20083;-69
2022/10/04 10:19:44;;;;;;;14.48;7.63;;;;;;;;;;5043327;28;20048;-69
2022/10/04 10:22:17;;;;;;;13.52;6.97;;;;;;;;;;5036626;28;20049;-70
2022/10/04 10:24:49;;;;;;;12.30;7.28;;;;;;;;;;5040509;28;20614;-69
2022/10/04 10:27:34;;;;;;;10.27;6.70;;;;;;;;;;5044929;28;20120;-70
2022/10/04 10:30:14;;;;;;;14.75;7.20;;;;;;;;;;5043085;28;20482;-69
2022/10/04 10:32:43;;;;;;;11.38;6.63;;;;;;;;;;5039639;28;20044;-70
2022/10/04 10:35:24;;;;;;;11.10;7.18;;;;;;;;;;5050522;28;20498;-70
2022/10/04 10:37:53;;;;;;;12.00;6.90;;;;;;;;;;5048901;28;20037;-68
2022/10/04 10:40:22;;;;;;;11.60;7.22;;;;;;;;;;5053180;28;20449;-70
2022/10/04 10:43:07;;;;;;;12.52;7.45;;;;;;;;;;5051025;28;20040;-69
2022/10/04 10:45:33;;;;;;;12.98;7.32;;;;;;;;;;5046968;28;20036;-69
2022/10/04 10:48:05;;;;;;;14.07;6.90;;;;;;;;;;5046176;28;20182;-70
2022/10/04 10:50:30;;;;;;;11.45;7.13;;;;;;;;;;5045348;28;20154;-70
2022/10/04 10:53:15;;;;;;;12.27;7.18;;;;;;;;;;5046413;28;20776;-70
2022/10/04 10:55:56;;;;;;;13.13;6.97;;;;;;;;;;5055116;28;20064;-70
2022/10/04 10:58:24;;;;;;;;;;;;;;;;;;5047411;28;20044;-69
2022/10/04 11:01:11;;;;;;;11.93;6.63;;;;;;;;;;5054169;28;19923;-69
2022/10/04 11:03:56;;;;;;;12.30;7.28;;;;;;;;;;5034371;28;20041;-70
2022/10/04 11:06:40;;;;;;;12.80;6.95;;;;;;;;;;5041424;28;20041;-70
2022/10/04 11:09:09;;;;;;;11.68;5.80;;;;;;;;;;5048730;28;20041;-70
2022/10/04 11:11:54;;;;;;;15.30;6.93;;;;;;;;;;5046866;28;20120;-69
2022/10/04 11:14:20;;;;;;;13.52;6.50;;;;;;;;;;5049534;28;20025;-69
2022/10/04 11:17:02;;;;;;;11.43;6.35;;;;;;;;;;5053824;28;20039;-70
2022/10/04 11:19:47;;;;;;;16.52;7.40;;;;;;;;;;5048759;28;20095;-70
2022/10/04 11:22:35;;;;;;;25.77;7.85;;;;;;;;;;5042497;28;20037;-70
2022/10/04 11:25:12;;;;;;;11.77;6.70;;;;;;;;;;5049024;28;20128;-70
2022/10/04 11:27:56;;;;;;;11.30;6.20;;;;;;;;;;5046030;28;20036;-70
2022/10/04 11:30:25;;;;;;;10.38;5.85;;;;;;;;;;5044089;28;20044;-70
2022/10/04 11:32:53;;;;;;;15.02;6.43;;;;;;;;;;5047892;28;20045;-70
2022/10/04 11:35:46;;;;;;;10.88;5.38;;;;;;;;;;5045777;28;20095;-70
2022/10/04 11:38:27;;;;;;;14.27;5.20;;;;;;;;;;5044749;28;20044;-69
2022/10/04 11:40:54;;;;;;;;;;;;;;;;;;5044890;28;20045;-68
2022/10/04 11:43:23;;;;;;;11.93;5.63;;;;;;;;;;5048271;28;19935;-70
2022/10/04 11:46:07;;;;;;;11.73;5.53;;;;;;;;;;5036325;28;20068;-69
2022/10/04 11:48:34;;;;;;;10.75;5.38;;;;;;;;;;5044759;28;20041;-70
2022/10/04 11:51:09;;;;;;;12.40;6.22;;;;;;;;;;5049891;28;20113;-70
2022/10/04 11:53:51;;;;;;;12.65;6.07;;;;;;;;;;5046287;28;20060;-71
2022/10/04 11:56:23;;;;;;;6.65;4.70;;;;;;;;;;5036496;28;20407;-69
2022/10/04 11:58:58;;;;;;;13.25;4.88;;;;;;;;;;5035685;28;20036;-69
2022/10/04 12:01:44;;;;;;;12.23;5.32;;;;;;;;;;5041000;28;20037;-69
2022/10/04 12:04:30;;;;;;;11.27;4.43;;;;;;;;;;5034716;28;20087;-70
2022/10/04 12:06:56;;;;;;;9.68;4.65;;;;;;;;;;5048543;28;20048;-69
2022/10/04 12:09:35;;;;;;;11.00;5.00;;;;;;;;;;5035219;28;20033;-70
2022/10/04 12:15:07;;;;;;;8.23;4.55;;;;;;;;;;5040739;28;20521;-69
2022/10/04 12:18:09;;;;;;;9.25;4.97;;;;;;;;;;5037690;28;20896;-69
2022/10/04 12:20:40;;;;;;;8.20;4.57;;;;;;;;;;4985118;28;20053;-69
2022/10/04 12:23:12;;;;;;;8.90;5.22;;;;;;;;;;5007118;28;20045;-69
2022/10/04 12:39:17;;;;;;;8.70;5.07;;;;;;;;;;5042175;28;20135;-70
2022/10/04 12:42:00;;;;;;;9.27;5.38;;;;;;;;;;5050868;28;20072;-69
2022/10/04 12:44:39;;;;;;;13.10;5.32;;;;;;;;;;5048802;28;20045;-70
2022/10/04 12:47:24;;;;;;;11.00;5.63;;;;;;;;;;5042091;28;20041;-70
2022/10/04 12:50:19;;;;;;;7.95;4.88;;;;;;;;;;5039084;28;20034;-70
2022/10/04 12:52:51;;;;;;;9.80;5.38;;;;;;;;;;4971762;28;20513;-70
2022/10/04 12:55:37;;;;;;;12.88;4.90;;;;;;;;;;5050368;28;20420;-70
2022/10/04 12:58:06;;;;;;;9.80;4.97;;;;;;;;;;5045497;28;20095;-69
2022/10/04 13:00:36;;;;;;;9.63;5.20;;;;;;;;;;5042624;28;20052;-70
2022/10/04 13:03:02;;;;;;;11.13;5.35;;;;;;;;;;5041355;28;20048;-70
2022/10/04 13:05:41;;;;;;;11.63;4.97;;;;;;;;;;5041885;28;20051;-71
2022/10/04 13:08:17;;;;;;;7.63;5.30;;;;;;;;;;5041047;28;20572;-70
2022/10/04 13:11:02;;;;;;;13.75;6.07;;;;;;;;;;5029500;28;20045;-71
2022/10/04 13:13:47;;;;;;;10.15;5.80;;;;;;;;;;5038132;28;20032;-68
2022/10/04 13:16:13;;;;;;;10.00;4.80;;;;;;;;;;5044113;28;20044;-69
2022/10/04 13:18:48;;;;;;;7.32;4.50;;;;;;;;;;5037168;28;20191;-70
2022/10/04 13:21:24;;;;;;;11.38;4.47;;;;;;;;;;5044135;28;20048;-70
2022/10/04 13:24:03;;;;;;;11.93;4.70;;;;;;;;;;5046182;28;20146;-70
2022/10/04 13:26:47;;;;;;;7.57;4.20;;;;;;;;;;5038267;28;20190;-70
2022/10/04 13:29:13;;;;;;;8.55;4.40;;;;;;;;;;5043182;28;20036;-68
2022/10/04 13:31:57;;;;;;;10.38;5.35;;;;;;;;;;5038996;28;20145;-69
2022/10/04 13:34:28;;;;;;;6.63;4.30;;;;;;;;;;5047680;28;20044;-70
2022/10/04 13:37:03;;;;;;;9.10;4.30;;;;;;;;;;5045169;28;20116;-70
2022/10/04 13:39:32;;;;;;;10.10;4.75;;;;;;;;;;5051035;28;20482;-70
2022/10/04 13:42:24;;;;;;;7.68;4.40;;;;;;;;;;5052723;28;20577;-69
2022/10/04 13:44:56;;;;;;;13.35;5.07;;;;;;;;;;5031028;28;20051;-69
2022/10/04 13:47:26;;;;;;;8.20;4.88;;;;;;;;;;5048609;28;20037;-70
2022/10/04 13:50:12;;;;;;;9.18;4.95;;;;;;;;;;5050907;28;20082;-70
2022/10/04 13:58:38;;;;;;;10.50;5.30;;;;;;;;;;5042771;28;20056;-70
2022/10/04 14:01:16;;;;;;;10.40;5.57;;;;;;;;;;5048680;28;20040;-70
2022/10/04 14:03:56;;;;;;;12.02;5.53;;;;;;;;;;5054806;28;20436;-71
2022/10/04 14:06:51;;;;;;;9.02;4.95;;;;;;;;;;5045649;28;20040;-71
2022/10/04 14:09:44;;;;;;;8.90;5.65;;;;;;;;;;5038569;28;20042;-69
2022/10/04 14:12:31;;;;;;;11.88;5.85;;;;;;;;;;5043161;28;20486;-69
2022/10/04 14:15:02;;;;;;;11.95;5.45;;;;;;;;;;5051038;28;20047;-70
2022/10/04 14:17:47;;;;;;;8.10;5.50;;;;;;;;;;5041410;28;20107;-69
2022/10/04 14:20:25;;;;;;;9.07;5.25;;;;;;;;;;5055595;28;20486;-70
2022/10/04 14:23:03;;;;;;;12.07;5.53;;;;;;;;;;5049270;28;20033;-70
2022/10/04 14:25:29;;;;;;;10.88;5.90;;;;;;;;;;5067697;22;20406;-66
2022/10/04 14:28:01;;;;;;;11.35;5.38;;;;;;;;;;5067116;28;20051;-66
2022/10/04 14:30:30;;;;;;;11.60;6.05;;;;;;;;;;5068733;28;20584;-66
2022/10/04 14:33:09;;;;;;;11.15;5.80;;;;;;;;;;5068620;28;20032;-67
2022/10/04 14:35:42;;;;;;;8.43;4.82;;;;;;;;;;5069429;28;20055;-67
2022/10/04 14:38:10;;;;;;;10.70;5.32;;;;;;;;;;5071450;28;20044;-66
2022/10/04 14:40:42;;;;;;;11.32;5.70;;;;;;;;;;5073417;28;20131;-66
2022/10/04 14:43:16;;;;;;;12.13;5.43;;;;;;;;;;5069685;28;20841;-66
2022/10/04 14:45:51;;;;;;;10.70;5.55;;;;;;;;;;5066778;28;20419;-66
2022/10/04 14:48:36;;;;;;;11.98;5.25;;;;;;;;;;5065607;28;20486;-67
2022/10/04 14:51:11;;;;;;;9.52;5.45;;;;;;;;;;5070158;28;20037;-67
2022/10/04 14:53:51;;;;;;;9.68;4.78;;;;;;;;;;5071244;28;20037;-67
2022/10/04 14:56:26;;;;;;;9.95;5.28;;;;;;;;;;5068946;28;20394;-66
2022/10/04 14:59:03;;;;;;;11.10;5.22;;;;;;;;;;5070397;28;20066;-67
2022/10/04 15:01:30;;;;;;;8.77;4.38;;;;;;;;;;5070980;28;20177;-66
2022/10/04 15:03:59;;;;;;;10.20;5.28;;;;;;;;;;5070876;28;20490;-67
2022/10/04 15:06:41;;;;;;;10.20;5.13;;;;;;;;;;5067131;28;20482;-66
2022/10/04 15:09:25;;;;;;;12.43;5.38;;;;;;;;;;5071273;28;20036;-67
2022/10/04 15:12:23;;;;;;;10.63;5.10;;;;;;;;;;5075377;28;20059;-66
2022/10/04 15:15:10;;;;;;;9.52;4.50;;;;;;;;;;5026603;28;20040;-66
2022/10/04 15:17:40;;;;;;;8.38;4.70;;;;;;;;;;5070856;28;20098;-67
2022/10/04 15:20:19;;;;;;;10.15;4.82;;;;;;;;;;5073239;28;20029;-67
2022/10/04 15:22:53;;;;;;;11.15;5.05;;;;;;;;;;5056578;28;20071;-66
2022/10/04 15:25:39;;;;;;;9.65;4.78;;;;;;;;;;5069951;28;20559;-67
2022/10/04 15:28:14;;;;;;;10.40;4.80;;;;;;;;;;5067856;28;20075;-67
2022/10/04 15:31:00;;;;;;;11.35;5.47;;;;;;;;;;5069450;28;20041;-68
2022/10/04 15:33:33;;;;;;;8.20;5.20;;;;;;;;;;5072377;28;20032;-68
2022/10/04 15:36:12;;;;;;;8.82;4.93;;;;;;;;;;5070688;28;20032;-67
2022/10/04 15:38:52;;;;;;;12.30;5.03;;;;;;;;;;5071640;28;20487;-67
2022/10/04 15:41:37;;;;;;;9.48;4.75;;;;;;;;;;5072797;28;20553;-67